Time;durP1;ratioP1;P1;durP2;ratioP2;P2;SDS_P1;SDS_P2;PMS_P1;PMS_P2;Temp;Humidity;BMP_temperature;BMP_pressure;BME280_temperature;BME280_humidity;BME280_pressure;Samples;Min_cycle;Max_cycle;Signal;HPM_P1;HPM_P2
2022/07/07 00:02:33;;;;;;;8.20;3.40;;;16.00;99.90;;;;;;12464772;28;20096;-39
2022/07/07 00:08:35;;;;;;;5.97;3.78;;;15.90;99.90;;;;;;12478776;28;20072;-39
2022/07/07 00:14:37;;;;;;;10.63;4.97;;;16.00;99.90;;;;;;12474929;28;20042;-39
2022/07/07 00:20:39;;;;;;;8.38;4.40;;;16.00;99.90;;;;;;12482089;28;20058;-39
2022/07/07 00:26:41;;;;;;;8.57;4.75;;;16.00;99.90;;;;;;12456860;28;20042;-39
2022/07/07 00:32:43;;;;;;;11.25;5.75;;;16.00;99.90;;;;;;12488184;28;20120;-39
2022/07/07 00:38:45;;;;;;;8.07;5.03;;;15.80;99.90;;;;;;12491452;28;20514;-35
2022/07/07 00:44:47;;;;;;;14.27;6.13;;;15.70;99.90;;;;;;12473632;28;20045;-36
2022/07/07 00:50:49;;;;;;;8.20;5.45;;;15.70;99.90;;;;;;12478256;28;20045;-39
2022/07/07 00:56:50;;;;;;;8.73;5.55;;;15.70;99.90;;;;;;12488648;28;20184;-35
2022/07/07 01:03:13;;;;;;;9.75;5.45;;;15.60;99.90;;;;;;12489270;28;20520;-36
2022/07/07 01:09:15;;;;;;;13.68;5.28;;;15.60;99.90;;;;;;12486990;28;20049;-39
2022/07/07 01:15:17;;;;;;;7.35;5.20;;;15.50;99.90;;;;;;12478512;28;20049;-39
2022/07/07 01:21:21;;;;;;;8.93;5.03;;;15.60;99.90;;;;;;12486843;28;20541;-36
2022/07/07 01:27:23;;;;;;;10.33;5.13;;;15.60;99.90;;;;;;12484066;28;20041;-39
2022/07/07 01:33:25;;;;;;;10.25;5.75;;;15.50;99.90;;;;;;12486473;28;20351;-35
2022/07/07 01:39:27;;;;;;;10.38;5.68;;;15.50;99.90;;;;;;12484612;28;20473;-38
2022/07/07 01:45:29;;;;;;;8.43;5.97;;;15.50;99.90;;;;;;12482394;28;20082;-36
2022/07/07 01:51:31;;;;;;;8.93;6.55;;;15.60;99.90;;;;;;12484786;28;20087;-39
2022/07/07 01:57:33;;;;;;;9.48;5.97;;;15.60;99.90;;;;;;12487017;28;20484;-40
2022/07/07 02:03:35;;;;;;;11.60;6.00;;;15.50;99.90;;;;;;12489536;28;20398;-39
2022/07/07 02:09:37;;;;;;;10.18;6.70;;;15.60;99.90;;;;;;12482236;28;20045;-39
2022/07/07 02:15:39;;;;;;;11.43;5.60;;;15.60;99.90;;;;;;12480813;28;20050;-39
2022/07/07 02:21:41;;;;;;;9.00;6.25;;;15.60;99.90;;;;;;12470905;28;20405;-39
2022/07/07 02:27:43;;;;;;;9.23;6.32;;;15.60;99.90;;;;;;12477308;28;20084;-36
2022/07/07 02:33:45;;;;;;;9.32;6.13;;;15.70;99.90;;;;;;12475949;28;20045;-39
2022/07/07 02:39:47;;;;;;;10.52;6.15;;;15.60;99.90;;;;;;12491840;28;20077;-35
2022/07/07 02:45:49;;;;;;;9.07;6.25;;;15.60;99.90;;;;;;12486153;28;20094;-35
2022/07/07 02:51:51;;;;;;;10.35;6.80;;;15.70;99.90;;;;;;12491099;28;20168;-39
2022/07/07 02:57:53;;;;;;;8.27;6.13;;;15.60;99.90;;;;;;12486607;28;20128;-38
2022/07/07 03:03:55;;;;;;;12.95;6.75;;;15.60;99.90;;;;;;12476060;28;20524;-39
2022/07/07 03:09:57;;;;;;;9.20;6.63;;;15.70;99.90;;;;;;12488045;28;20054;-38
2022/07/07 03:15:59;;;;;;;8.95;6.40;;;15.70;99.90;;;;;;12474947;28;20458;-39
2022/07/07 03:22:04;;;;;;;11.52;7.97;;;15.70;99.90;;;;;;12475863;28;20057;-38
2022/07/07 03:28:06;;;;;;;15.13;8.73;;;15.70;99.90;;;;;;12477167;28;20502;-35
2022/07/07 03:34:07;;;;;;;12.85;8.45;;;15.70;99.90;;;;;;12482641;28;20049;-39
2022/07/07 03:40:10;;;;;;;14.10;9.43;;;15.70;99.90;;;;;;12484518;28;20874;-38
2022/07/07 03:46:12;;;;;;;11.85;9.13;;;15.60;99.90;;;;;;12479119;28;20049;-35
2022/07/07 03:52:14;;;;;;;20.25;9.80;;;15.50;99.90;;;;;;12485605;28;20042;-38
2022/07/07 03:58:16;;;;;;;13.77;9.23;;;15.50;99.90;;;;;;12470007;28;20125;-35
2022/07/07 04:04:18;;;;;;;16.55;9.75;;;15.40;99.90;;;;;;12471305;28;20049;-36
2022/07/07 04:10:20;;;;;;;12.57;10.15;;;15.40;99.90;;;;;;12488916;28;20049;-35
2022/07/07 04:16:21;;;;;;;11.63;9.60;;;15.50;99.90;;;;;;12494064;28;20628;-38
2022/07/07 04:22:23;;;;;;;16.38;10.85;;;15.50;99.90;;;;;;12498718;28;20050;-38
2022/07/07 04:28:25;;;;;;;15.07;9.30;;;15.50;99.90;;;;;;12488964;28;20094;-35
2022/07/07 04:34:27;;;;;;;12.82;9.15;;;15.60;99.90;;;;;;12491377;28;20045;-35
2022/07/07 04:40:29;;;;;;;12.45;9.38;;;15.50;99.90;;;;;;12482787;28;20053;-35
2022/07/07 04:46:32;;;;;;;14.25;9.35;;;15.60;99.90;;;;;;12477276;28;20139;-35
2022/07/07 04:52:34;;;;;;;10.93;8.77;;;15.50;99.90;;;;;;12490077;28;20056;-38
2022/07/07 04:58:36;;;;;;;13.13;10.27;;;15.50;99.90;;;;;;12493935;28;20409;-39
2022/07/07 05:04:37;;;;;;;12.90;9.95;;;15.50;99.90;;;;;;12489362;28;20075;-38
2022/07/07 05:10:39;;;;;;;14.98;9.98;;;15.50;99.90;;;;;;12488795;28;20485;-35
2022/07/07 05:16:41;;;;;;;15.30;10.35;;;15.50;99.90;;;;;;12490385;28;20188;-35
2022/07/07 05:22:43;;;;;;;15.10;10.60;;;15.50;99.90;;;;;;12486235;28;20041;-35
2022/07/07 05:28:45;;;;;;;14.13;10.25;;;15.40;99.90;;;;;;12492608;28;20045;-35
2022/07/07 05:34:47;;;;;;;18.23;11.63;;;15.30;99.90;;;;;;12493384;28;20045;-39
2022/07/07 05:40:48;;;;;;;10.68;9.13;;;15.40;99.90;;;;;;12492410;28;20136;-38
2022/07/07 05:46:50;;;;;;;10.43;7.47;;;15.20;99.90;;;;;;12486106;28;20069;-35
2022/07/07 05:52:53;;;;;;;9.73;6.93;;;15.10;99.90;;;;;;12493365;28;20045;-35
2022/07/07 05:58:55;;;;;;;9.23;6.22;;;15.00;99.90;;;;;;12489788;28;20060;-39
2022/07/07 06:04:57;;;;;;;6.75;4.80;;;15.00;99.90;;;;;;12487183;28;20083;-39
2022/07/07 06:10:59;;;;;;;6.70;4.75;;;15.00;99.90;;;;;;12483787;28;20675;-38
2022/07/07 06:17:01;;;;;;;6.57;3.85;;;15.10;99.90;;;;;;12487527;28;20144;-35
2022/07/07 06:23:07;;;;;;;6.70;3.58;;;15.10;99.90;;;;;;12483754;28;20073;-39
2022/07/07 06:29:11;;;;;;;7.32;4.38;;;15.10;99.90;;;;;;12488327;28;20482;-36
2022/07/07 06:35:13;;;;;;;5.68;4.05;;;15.20;99.90;;;;;;12474983;28;20467;-38
2022/07/07 06:41:17;;;;;;;6.05;4.10;;;15.20;99.90;;;;;;12486435;28;20049;-38
2022/07/07 06:47:19;;;;;;;5.97;4.43;;;15.20;99.90;;;;;;12471540;28;20046;-35
2022/07/07 06:53:21;;;;;;;5.63;3.90;;;15.30;99.90;;;;;;12476645;28;20038;-38
2022/07/07 06:59:23;;;;;;;5.85;4.03;;;15.30;99.90;;;;;;12489609;28;20124;-36
2022/07/07 07:05:25;;;;;;;6.93;3.85;;;15.30;99.90;;;;;;12490333;28;20042;-35
2022/07/07 07:11:28;;;;;;;5.88;3.25;;;15.30;99.90;;;;;;12487764;28;20117;-38
2022/07/07 07:17:29;;;;;;;4.85;2.80;;;15.50;99.90;;;;;;12485855;28;20064;-39
2022/07/07 07:23:31;;;;;;;5.13;2.75;;;15.50;99.90;;;;;;12474857;28;20046;-35
2022/07/07 07:29:33;;;;;;;4.28;2.00;;;15.50;99.90;;;;;;12481735;28;20078;-38
2022/07/07 07:35:35;;;;;;;6.90;1.85;;;15.50;99.90;;;;;;12481181;28;20048;-38
2022/07/07 07:41:38;;;;;;;4.93;0.95;;;15.60;99.90;;;;;;12487055;28;20053;-38
2022/07/07 07:47:45;;;;;;;3.22;1.00;;;15.60;99.90;;;;;;12479188;28;20167;-35
2022/07/07 07:53:47;;;;;;;2.03;0.93;;;15.60;99.90;;;;;;12486017;28;20038;-39
2022/07/07 07:59:49;;;;;;;2.58;0.95;;;15.60;99.90;;;;;;12488778;28;20046;-35
2022/07/07 08:05:51;;;;;;;5.60;0.95;;;15.60;99.90;;;;;;12484484;28;20037;-35
2022/07/07 08:11:53;;;;;;;3.08;0.90;;;15.60;99.90;;;;;;12491309;28;20125;-36
2022/07/07 08:17:54;;;;;;;2.67;0.90;;;15.60;99.90;;;;;;12492516;28;20049;-37
2022/07/07 08:23:56;;;;;;;2.42;0.88;;;15.40;99.90;;;;;;12493420;28;20132;-36
2022/07/07 08:30:00;;;;;;;3.05;0.95;;;15.40;99.90;;;;;;12475722;28;20042;-38
2022/07/07 08:36:02;;;;;;;3.20;1.00;;;15.40;99.90;;;;;;12488830;28;20524;-35
2022/07/07 08:42:04;;;;;;;6.47;1.05;;;15.30;99.90;;;;;;12485298;28;20049;-39
2022/07/07 08:48:06;;;;;;;3.40;1.00;;;15.20;99.90;;;;;;12486532;28;20132;-39
2022/07/07 08:54:15;;;;;;;3.45;0.90;;;15.50;99.90;;;;;;12494665;28;20045;-39
2022/07/07 09:00:18;;;;;;;5.70;1.10;;;15.60;99.90;;;;;;12485444;28;20123;-39
2022/07/07 09:06:20;;;;;;;2.58;0.80;;;15.50;99.90;;;;;;12490555;28;20053;-39
2022/07/07 09:12:32;;;;;;;3.88;0.80;;;15.50;99.90;;;;;;12489547;28;20049;-36
2022/07/07 09:18:36;;;;;;;5.25;1.08;;;15.50;99.90;;;;;;12487693;28;20176;-39
2022/07/07 09:24:56;;;;;;;3.13;0.95;;;15.40;99.90;;;;;;12478760;28;20045;-36
2022/07/07 09:30:58;;;;;;;10.27;1.40;;;15.50;99.90;;;;;;12484786;28;20045;-40
2022/07/07 09:43:23;;;;;;;5.07;1.50;;;15.70;99.90;;;;;;12482267;28;20079;-36
2022/07/07 09:49:25;;;;;;;5.32;1.60;;;15.70;99.90;;;;;;12475143;28;20076;-36
2022/07/07 09:55:27;;;;;;;7.05;1.45;;;15.60;99.90;;;;;;12477268;28;20132;-36
2022/07/07 10:01:31;;;;;;;7.78;2.08;;;15.60;99.90;;;;;;12484766;28;20405;-36
2022/07/07 10:07:34;;;;;;;4.30;1.77;;;15.50;99.90;;;;;;12489153;28;20053;-36
2022/07/07 10:13:41;;;;;;;4.63;1.77;;;15.50;99.90;;;;;;12486175;28;20087;-36
2022/07/07 10:19:44;;;;;;;6.10;1.80;;;15.50;99.90;;;;;;12483960;28;20058;-40
2022/07/07 10:26:06;;;;;;;5.40;1.70;;;15.90;99.90;;;;;;12485386;28;20132;-37
2022/07/07 10:32:14;;;;;;;5.65;1.80;;;16.00;99.90;;;;;;12483929;28;20046;-36
2022/07/07 10:38:17;;;;;;;7.43;2.08;;;16.20;99.90;;;;;;12494978;28;20057;-39
2022/07/07 10:44:20;;;;;;;6.97;1.75;;;16.40;99.90;;;;;;12484826;28;20097;-35
2022/07/07 10:50:24;;;;;;;4.55;1.40;;;16.50;99.90;;;;;;12473186;28;20136;-36
2022/07/07 10:56:27;;;;;;;5.78;1.23;;;16.40;99.90;;;;;;12476680;28;20532;-36
2022/07/07 11:02:29;;;;;;;4.22;1.05;;;16.00;99.90;;;;;;12489337;28;20046;-36
2022/07/07 11:08:36;;;;;;;8.27;1.58;;;16.20;99.90;;;;;;12476017;28;20405;-40
2022/07/07 11:14:38;;;;;;;6.10;1.45;;;16.60;99.90;;;;;;12487438;28;20125;-36
2022/07/07 11:20:56;;;;;;;5.03;1.40;;;16.90;99.90;;;;;;12487861;28;20049;-40
2022/07/07 11:27:02;;;;;;;7.38;1.42;;;17.10;99.90;;;;;;12482258;28;20445;-39
2022/07/07 11:33:04;;;;;;;5.32;1.67;;;17.00;99.90;;;;;;12487793;28;20046;-39
2022/07/07 11:39:07;;;;;;;9.30;1.52;;;17.00;99.90;;;;;;12485117;28;20060;-36
2022/07/07 11:45:19;;;;;;;6.07;1.60;;;16.90;99.90;;;;;;12490074;28;20498;-36
2022/07/07 11:51:29;;;;;;;4.45;1.30;;;16.80;99.90;;;;;;12492390;28;20058;-36
2022/07/07 11:57:37;;;;;;;14.73;1.65;;;16.90;99.90;;;;;;12486973;28;20064;-36
2022/07/07 12:03:39;;;;;;;7.43;1.20;;;16.90;99.90;;;;;;12484102;28;20048;-36
2022/07/07 12:09:45;;;;;;;7.93;1.08;;;17.20;99.90;;;;;;12483229;28;20163;-39
2022/07/07 12:15:50;;;;;;;3.58;1.27;;;17.50;99.90;;;;;;12480217;28;20061;-40
2022/07/07 12:21:52;;;;;;;5.03;1.60;;;17.80;99.90;;;;;;12494306;28;20055;-36
2022/07/07 12:27:58;;;;;;;3.20;1.02;;;18.10;99.90;;;;;;12497263;28;20490;-36
2022/07/07 12:34:10;;;;;;;3.80;0.88;;;18.10;99.90;;;;;;12479778;28;20069;-36
2022/07/07 12:40:17;;;;;;;2.20;0.65;;;17.80;99.90;;;;;;12496347;28;20046;-36
2022/07/07 12:46:19;;;;;;;4.15;0.70;;;17.30;99.90;;;;;;12473059;28;20052;-36
2022/07/07 12:52:22;;;;;;;2.07;1.00;;;17.20;99.90;;;;;;12499827;28;20046;-36
2022/07/07 12:58:24;;;;;;;1.17;0.70;;;17.40;99.90;;;;;;12495897;28;20046;-36
2022/07/07 13:04:26;;;;;;;1.60;0.52;;;17.70;99.90;;;;;;12495076;28;20054;-40
2022/07/07 13:10:29;;;;;;;2.10;0.70;;;17.70;99.90;;;;;;12495559;28;20421;-36
2022/07/07 13:16:32;;;;;;;2.20;0.50;;;17.70;99.90;;;;;;12496281;28;20053;-39
2022/07/07 13:22:35;;;;;;;2.53;0.50;;;17.70;99.90;;;;;;12494532;28;20042;-40
2022/07/07 13:28:37;;;;;;;1.85;0.65;;;17.80;99.90;;;;;;12489320;28;20041;-36
2022/07/07 13:34:40;;;;;;;4.20;0.70;;;17.60;99.90;;;;;;12493210;28;20414;-35
2022/07/07 13:40:42;;;;;;;1.40;0.70;;;17.30;99.90;;;;;;12483628;28;20603;-36
2022/07/07 13:46:52;;;;;;;1.48;0.93;;;16.70;99.90;;;;;;12491726;28;20068;-36
2022/07/07 13:52:54;;;;;;;3.50;1.10;;;16.50;99.90;;;;;;12487853;28;20046;-36
2022/07/07 13:58:56;;;;;;;2.85;1.17;;;16.20;99.90;;;;;;12487706;28;20064;-36
2022/07/07 14:04:58;;;;;;;3.50;1.30;;;16.10;99.90;;;;;;12493618;28;20045;-40
2022/07/07 14:11:05;;;;;;;6.00;1.50;;;15.90;99.90;;;;;;12488965;28;20139;-36
2022/07/07 14:17:08;;;;;;;4.05;1.50;;;15.70;99.90;;;;;;12492283;28;20057;-36
2022/07/07 14:23:10;;;;;;;5.78;1.60;;;15.40;99.90;;;;;;12483362;28;20053;-39
2022/07/07 14:29:13;;;;;;;6.83;1.87;;;15.40;99.90;;;;;;12495103;28;20049;-39
2022/07/07 14:35:16;;;;;;;9.40;1.67;;;15.40;99.90;;;;;;12471331;28;20494;-39
2022/07/07 14:41:18;;;;;;;8.38;2.10;;;15.30;99.90;;;;;;12480737;28;20087;-36
2022/07/07 14:47:20;;;;;;;9.15;1.92;;;15.40;99.90;;;;;;12480033;28;20492;-39
2022/07/07 14:53:22;;;;;;;10.07;2.30;;;15.50;99.90;;;;;;12492938;28;20497;-35
2022/07/07 14:59:24;;;;;;;8.50;2.13;;;15.70;99.90;;;;;;12482612;28;20118;-35
2022/07/07 15:05:26;;;;;;;11.90;2.72;;;15.80;99.90;;;;;;12484237;28;20421;-39
2022/07/07 15:11:30;;;;;;;13.98;2.35;;;15.80;99.90;;;;;;12485633;28;20045;-39
2022/07/07 15:17:32;;;;;;;;;;;15.90;99.90;;;;;;12470561;28;20117;-38
2022/07/07 15:23:34;;;;;;;8.45;1.67;;;15.80;99.90;;;;;;12461595;28;19928;-39
2022/07/07 15:29:36;;;;;;;13.05;2.08;;;15.80;99.90;;;;;;12481398;28;20061;-39
2022/07/07 15:35:40;;;;;;;10.30;1.77;;;16.20;99.90;;;;;;12470814;28;20042;-36
2022/07/07 15:41:42;;;;;;;11.13;2.20;;;16.30;99.90;;;;;;12478030;28;20049;-36
2022/07/07 15:47:44;;;;;;;12.82;2.05;;;16.10;99.90;;;;;;12479889;28;20042;-35
2022/07/07 15:53:47;;;;;;;9.15;1.80;;;16.00;99.90;;;;;;12474138;28;20046;-39
2022/07/07 15:59:49;;;;;;;13.93;2.00;;;16.20;99.90;;;;;;12488579;28;20088;-40
2022/07/07 16:05:51;;;;;;;13.88;2.20;;;16.50;99.90;;;;;;12492514;28;20183;-39
2022/07/07 16:11:57;;;;;;;9.32;2.10;;;16.30;99.90;;;;;;12494537;28;20045;-36
2022/07/07 16:18:05;;;;;;;8.68;2.00;;;16.30;99.90;;;;;;12491070;28;20135;-36
2022/07/07 16:24:07;;;;;;;8.52;1.63;;;16.20;99.90;;;;;;12501134;28;20043;-39
2022/07/07 16:30:10;;;;;;;15.32;1.67;;;16.20;99.90;;;;;;12485207;28;20095;-36
2022/07/07 16:36:13;;;;;;;8.43;1.77;;;16.10;99.90;;;;;;12470130;28;20500;-39
2022/07/07 16:42:15;;;;;;;9.20;1.70;;;16.20;99.90;;;;;;12470081;28;20167;-39
2022/07/07 16:48:17;;;;;;;8.07;1.35;;;16.20;99.90;;;;;;12462195;28;20090;-38
2022/07/07 16:54:18;;;;;;;7.38;1.30;;;16.00;99.90;;;;;;12480098;28;20085;-36
2022/07/07 17:00:22;;;;;;;7.15;1.77;;;15.90;99.90;;;;;;12480144;28;20163;-39
2022/07/07 17:06:25;;;;;;;8.17;1.50;;;15.90;99.90;;;;;;12489585;28;20087;-39
2022/07/07 17:12:27;;;;;;;12.97;1.80;;;15.90;99.90;;;;;;12482455;28;20474;-40
2022/07/07 17:18:29;;;;;;;11.18;1.60;;;16.00;99.90;;;;;;12489862;28;20316;-35
2022/07/07 17:24:32;;;;;;;8.95;1.48;;;15.80;99.90;;;;;;12488403;28;20045;-35
2022/07/07 17:30:33;;;;;;;10.85;1.80;;;15.80;99.90;;;;;;12476795;28;20045;-40
2022/07/07 17:36:36;;;;;;;9.05;1.50;;;15.80;99.90;;;;;;12480074;28;20111;-39
2022/07/07 17:42:38;;;;;;;9.50;1.65;;;15.80;99.90;;;;;;12489917;28;20041;-35
2022/07/07 17:48:40;;;;;;;12.30;2.33;;;15.70;99.90;;;;;;12475203;28;20172;-35
2022/07/07 17:54:43;;;;;;;7.38;1.33;;;15.80;99.90;;;;;;12487447;28;20034;-39
2022/07/07 18:00:45;;;;;;;7.13;1.25;;;15.80;99.90;;;;;;12483704;28;20136;-36
2022/07/07 18:06:47;;;;;;;9.98;1.50;;;15.80;99.90;;;;;;12478081;28;20457;-36
2022/07/07 18:12:49;;;;;;;6.88;1.30;;;15.60;99.90;;;;;;12476171;28;20116;-39
2022/07/07 18:18:51;;;;;;;10.98;1.38;;;15.60;99.90;;;;;;12479518;28;20053;-39
2022/07/07 18:24:53;;;;;;;7.53;1.60;;;15.60;99.90;;;;;;12484877;28;20042;-39
2022/07/07 18:30:55;;;;;;;9.55;2.25;;;15.60;99.90;;;;;;12463049;28;20057;-37
2022/07/07 18:36:58;;;;;;;6.95;1.23;;;15.60;99.90;;;;;;12485259;28;20042;-36
2022/07/07 18:43:00;;;;;;;9.63;1.42;;;15.40;99.90;;;;;;12486605;28;20456;-39
2022/07/07 18:49:02;;;;;;;9.43;1.33;;;15.40;99.90;;;;;;12478009;28;20640;-39
2022/07/07 18:55:04;;;;;;;9.13;1.58;;;15.40;99.90;;;;;;12474934;28;20045;-36
2022/07/07 19:01:06;;;;;;;9.38;2.22;;;15.30;99.90;;;;;;12484855;28;20180;-36
2022/07/07 19:07:08;;;;;;;6.43;1.33;;;15.30;99.90;;;;;;12483431;28;20098;-36
2022/07/07 19:13:10;;;;;;;8.75;1.33;;;15.20;99.90;;;;;;12488587;28;20041;-39
2022/07/07 19:19:17;;;;;;;6.00;1.30;;;15.20;99.90;;;;;;12486835;28;20537;-39
2022/07/07 19:25:19;;;;;;;7.95;1.33;;;15.10;99.90;;;;;;12475107;28;20152;-40
2022/07/07 19:31:21;;;;;;;11.20;2.08;;;15.10;99.90;;;;;;12489058;28;20463;-39
2022/07/07 19:37:24;;;;;;;6.53;1.23;;;15.00;99.90;;;;;;12488448;28;20488;-36
2022/07/07 19:43:26;;;;;;;6.40;1.50;;;15.00;99.90;;;;;;12492209;28;20056;-36
2022/07/07 19:49:28;;;;;;;8.00;1.63;;;14.90;99.90;;;;;;12489248;28;20084;-36
2022/07/07 19:55:30;;;;;;;11.30;1.63;;;14.80;99.90;;;;;;12488740;28;20128;-39
2022/07/07 20:01:32;;;;;;;9.98;1.70;;;14.80;99.90;;;;;;12493537;28;20120;-40
2022/07/07 20:07:34;;;;;;;11.98;2.00;;;14.70;99.90;;;;;;12491936;28;20509;-36
2022/07/07 20:13:36;;;;;;;10.10;1.67;;;14.80;99.90;;;;;;12489829;28;20046;-39
2022/07/07 20:19:38;;;;;;;7.22;1.73;;;14.70;99.90;;;;;;12494432;28;20061;-37
2022/07/07 20:25:40;;;;;;;9.75;1.67;;;14.70;99.90;;;;;;12495686;28;20526;-39
2022/07/07 20:31:43;;;;;;;10.38;1.92;;;14.70;99.90;;;;;;12494612;28;20128;-40
2022/07/07 20:37:54;;;;;;;13.48;2.35;;;14.60;99.90;;;;;;12483855;28;20049;-37
2022/07/07 20:43:56;;;;;;;13.48;1.92;;;14.60;99.90;;;;;;12456780;28;20061;-37
2022/07/07 20:49:58;;;;;;;7.80;1.60;;;14.70;99.90;;;;;;12488432;28;20042;-37
2022/07/07 20:56:00;;;;;;;10.65;2.33;;;14.60;99.90;;;;;;12485452;28;20127;-36
2022/07/07 21:02:04;;;;;;;10.70;1.92;;;14.70;99.90;;;;;;12490807;28;20041;-39
2022/07/07 21:08:05;;;;;;;11.40;2.08;;;14.70;99.90;;;;;;12492819;28;20052;-36
2022/07/07 21:14:07;;;;;;;9.60;2.05;;;14.60;99.90;;;;;;12491276;28;20049;-39
2022/07/07 21:20:09;;;;;;;10.05;2.33;;;14.50;99.90;;;;;;12496353;28;20100;-36
2022/07/07 21:26:13;;;;;;;9.95;1.73;;;14.50;99.90;;;;;;12488529;28;20270;-40
2022/07/07 21:32:15;;;;;;;12.73;2.10;;;14.40;99.90;;;;;;12492557;28;20053;-39
2022/07/07 21:38:17;;;;;;;8.73;1.63;;;14.60;99.90;;;;;;12481868;28;20699;-36
2022/07/07 21:44:18;;;;;;;8.60;2.05;;;14.40;99.90;;;;;;12475207;28;20405;-36
2022/07/07 21:50:20;;;;;;;10.02;1.50;;;14.50;99.90;;;;;;12471223;28;20046;-39
2022/07/07 21:56:22;;;;;;;9.20;1.65;;;14.40;99.90;;;;;;12482423;28;20050;-40
2022/07/07 22:02:24;;;;;;;7.72;1.50;;;14.40;99.90;;;;;;12475365;28;20492;-36
2022/07/07 22:08:26;;;;;;;12.98;1.92;;;14.40;99.90;;;;;;12481517;28;20111;-36
2022/07/07 22:14:28;;;;;;;11.63;2.47;;;14.50;99.90;;;;;;12482161;28;20037;-40
2022/07/07 22:20:31;;;;;;;13.50;2.38;;;14.40;99.90;;;;;;12483150;28;20186;-40
2022/07/07 22:26:33;;;;;;;12.98;2.28;;;14.40;99.90;;;;;;12485304;28;20103;-40
2022/07/07 22:32:35;;;;;;;11.90;1.98;;;14.40;99.90;;;;;;12480250;28;20127;-36
2022/07/07 22:38:38;;;;;;;11.38;1.90;;;14.40;99.90;;;;;;12484984;28;20133;-36
2022/07/07 22:44:39;;;;;;;12.80;2.13;;;14.50;99.90;;;;;;12474690;28;20561;-39
2022/07/07 22:50:41;;;;;;;10.13;2.05;;;14.30;99.90;;;;;;12478114;28;20132;-36
2022/07/07 22:56:43;;;;;;;11.82;2.03;;;14.50;99.90;;;;;;12485423;28;20206;-41
2022/07/07 23:02:45;;;;;;;15.48;2.10;;;14.30;99.90;;;;;;12477941;28;20511;-36
2022/07/07 23:08:47;;;;;;;12.25;2.13;;;14.30;99.90;;;;;;12488010;28;20053;-36
2022/07/07 23:14:48;;;;;;;14.40;1.88;;;14.20;99.90;;;;;;12483777;28;20079;-37
2022/07/07 23:20:50;;;;;;;12.50;2.05;;;14.30;99.90;;;;;;12485930;28;20087;-39
2022/07/07 23:26:52;;;;;;;10.88;2.20;;;14.20;99.90;;;;;;12480559;28;20053;-40
2022/07/07 23:32:54;;;;;;;12.77;2.10;;;14.20;99.90;;;;;;12479653;28;20041;-39
2022/07/07 23:38:56;;;;;;;9.70;2.10;;;14.20;99.90;;;;;;12480633;28;20045;-40
2022/07/07 23:44:59;;;;;;;10.75;1.83;;;14.10;99.90;;;;;;12476001;28;20119;-37
2022/07/07 23:51:01;;;;;;;8.48;1.95;;;14.10;99.90;;;;;;12487556;28;20080;-39
2022/07/07 23:57:03;;;;;;;13.52;2.90;;;14.30;99.90;;;;;;12475280;28;20061;-39
